Rayne, LA (70578)

2:29 PM CDT on April 26, 2015 (GMT -0500)
Roberts Cove | | Change Station
CLOSE
Current Station
Personal Weather Station
Location: Rayne, LA
Elevation: 33 ft
Nearby Weather Stations

Elev 33 ft 30.28 °N, 92.30 °W | Updated 5 minutes ago

Partly Cloudy
Partly Cloudy
83.8 °F
Feels Like 91 °F
N
2.2
Wind Variable Wind from ESE

Today
High -- | Low -- °F
--% Chance of Precip.
Yesterday
High -- | Low -- °F
Precip. -- in
6:30 AM 7:43 PM
First Quarter, 58% visible
Pressure 29.75 in
Visibility 10.0 miles
Clouds Clear
Heat Index 91 °F
Dew Point 74 °F
Humidity 73%
Rainfall 0.00 in
Snow Depth Not available.
UV 13 out of 12
Pollen 7.30 out of 12
Air Quality Not available.
Flu Activity Sporadic
METAR KLFT 261853Z 00000KT 10SM CLR 28/22 A2976 RMK AO2 SLP075 T02830217 $

More Conditions Fewer Conditions

Pressure 29.75 in
Visibility 10.0 miles
Clouds Clear
Heat Index 91 °F
Dew Point 74 °F
Humidity 73%
Rainfall 0.00 in
Snow Depth Not available.
UV 13 out of 12
Pollen 7.30 out of 12
Air Quality Not available.
Flu Activity Sporadic
METAR KLFT 261853Z 00000KT 10SM CLR 28/22 A2976 RMK AO2 SLP075 T02830217 $

More Conditions Fewer Conditions

The full scope of the disaster following a powerful 7.8-magnitude earthquake in Nepal may not come into view for days, but global charities are already sending emergency aid. Click to see how you can help.

10-Day Weather Forecast

Almanac

Astronomy

Apr. 26, 2015 Rise Set
Actual Time
Civil Twilight
Nautical Twilight
Astronomical Twilight
Moon
Length of Visible Light
Length of Day
Tomorrow will be .
, % of the Moon is Illuminated

Today's Extremes

State Highs State Lows

Community

WunderPhotos

Upload Photos

1,817,097 photos uploaded!

WunderBlogs® & News

Nearby

Air Quality

  Air Quality AQ Index Pollutant
Not available.

Snow Depth

Station Depth Elevation

Earthquake Activity

City Distance Mag. Time & Date
Minimum magnitude displayed is 2.5.

Coastal Water Temperatures

Place Temperature

Stations

Nearby Weather Stations

Station Location Temp. Windchill Dew Point Humidity Wind Precip. Elev Updated Type